Time;durP1;ratioP1;P1;durP2;ratioP2;P2;SDS_P1;SDS_P2;PMS_P1;PMS_P2;Temp;Humidity;BMP_temperature;BMP_pressure;BME280_temperature;BME280_humidity;BME280_pressure;Samples;Min_cycle;Max_cycle;Signal;HPM_P1;HPM_P2
2022/01/27 00:02:38;;;;;;;57.33;31.83;;;5.20;95.30;;;;;;5023411;28;20037;-77
2022/01/27 00:07:32;;;;;;;55.03;30.93;;;5.20;95.30;;;;;;5032585;28;20056;-78
2022/01/27 00:12:33;;;;;;;51.67;28.37;;;5.20;95.30;;;;;;5017211;28;20049;-77
2022/01/27 00:15:09;;;;;;;53.07;28.57;;;5.10;95.20;;;;;;5032734;28;20445;-79
2022/01/27 00:17:40;;;;;;;45.87;26.47;;;5.20;95.30;;;;;;5017648;28;20025;-78
2022/01/27 00:20:06;;;;;;;48.03;26.87;;;5.20;95.20;;;;;;5042879;28;20124;-77
2022/01/27 00:22:32;;;;;;;53.63;28.33;;;5.20;95.20;;;;;;5053410;28;20021;-78
2022/01/27 00:24:58;;;;;;;47.03;27.17;;;5.30;95.20;;;;;;5035460;28;20361;-78
2022/01/27 00:27:24;;;;;;;46.53;25.67;;;5.20;95.10;;;;;;5035536;28;20021;-78
2022/01/27 00:29:50;;;;;;;51.03;26.97;;;5.30;95.10;;;;;;5035628;28;20477;-77
2022/01/27 00:32:15;;;;;;;49.03;26.27;;;5.30;95.00;;;;;;5018903;28;20025;-78
2022/01/27 00:34:41;;;;;;;46.03;24.70;;;5.30;95.00;;;;;;5019210;28;20504;-79
2022/01/27 00:37:06;;;;;;;43.83;22.97;;;5.30;95.10;;;;;;5035837;28;20068;-78
2022/01/27 00:39:32;;;;;;;42.07;23.00;;;5.30;94.90;;;;;;5035375;28;20139;-79
2022/01/27 00:41:58;;;;;;;43.27;24.00;;;5.30;94.90;;;;;;5035445;28;20053;-78
2022/01/27 00:44:24;;;;;;;46.00;22.97;;;5.30;95.00;;;;;;5035474;28;20048;-76
2022/01/27 00:46:49;;;;;;;43.80;21.53;;;5.30;94.90;;;;;;5018851;28;20021;-81
2022/01/27 00:49:15;;;;;;;42.43;22.93;;;5.30;94.90;;;;;;5035223;28;20027;-78
2022/01/27 00:51:45;;;;;;;42.27;23.30;;;5.30;94.80;;;;;;5035079;28;20025;-78
2022/01/27 00:54:28;;;;;;;36.73;21.07;;;5.30;94.70;;;;;;5034653;28;20528;-78
2022/01/27 00:59:53;;;;;;;40.20;23.17;;;5.40;94.80;;;;;;5038174;28;20084;-78
2022/01/27 01:02:38;;;;;;;46.23;23.23;;;5.40;94.60;;;;;;5021022;28;20021;-79
2022/01/27 01:07:54;;;;;;;42.60;22.63;;;5.40;94.60;;;;;;5038138;28;20033;-78
2022/01/27 01:15:35;;;;;;;42.07;23.77;;;5.40;94.50;;;;;;5036386;28;20401;-78
2022/01/27 01:34:17;;;;;;;;;;;5.30;94.60;;;;;;5036636;28;20049;-79
2022/01/27 01:37:07;;;;;;;44.80;25.03;;;5.30;94.60;;;;;;5034800;28;19908;-78
2022/01/27 01:39:36;;;;;;;47.53;25.90;;;5.30;94.60;;;;;;5037557;28;20025;-76
2022/01/27 01:42:05;;;;;;;43.67;23.47;;;5.20;94.70;;;;;;5034813;28;20052;-78
2022/01/27 01:44:32;;;;;;;50.03;26.63;;;5.30;94.70;;;;;;5034654;28;20055;-78
2022/01/27 01:46:58;;;;;;;44.90;25.13;;;5.30;94.80;;;;;;5034833;28;20025;-78
2022/01/27 01:49:26;;;;;;;48.40;25.17;;;5.30;94.80;;;;;;5034682;28;20029;-79
2022/01/27 01:51:57;;;;;;;49.47;26.80;;;5.20;94.80;;;;;;5034672;28;20025;-78
2022/01/27 01:54:24;;;;;;;48.17;27.07;;;5.20;94.80;;;;;;5018233;28;20037;-79
2022/01/27 01:56:50;;;;;;;45.47;25.00;;;5.10;94.90;;;;;;5052427;28;20088;-78
2022/01/27 01:59:15;;;;;;;47.27;25.27;;;5.20;95.00;;;;;;5034555;28;20357;-79
2022/01/27 02:01:42;;;;;;;50.87;25.43;;;5.20;95.20;;;;;;5034564;28;20032;-77
2022/01/27 02:04:10;;;;;;;49.00;27.33;;;5.30;95.00;;;;;;5034991;28;20091;-79
2022/01/27 02:06:44;;;;;;;49.00;24.97;;;5.20;95.00;;;;;;5020298;28;20025;-78
2022/01/27 02:09:34;;;;;;;50.45;25.52;;;5.20;95.00;;;;;;5039331;28;20033;-79
2022/01/27 02:20:13;;;;;;;;;;;5.20;95.10;;;;;;5041040;28;20056;-77
2022/01/27 02:22:39;;;;;;;46.57;24.83;;;5.20;95.10;;;;;;5037865;28;19909;-75
2022/01/27 02:25:06;;;;;;;50.60;26.17;;;5.20;95.10;;;;;;5037765;28;20029;-78
2022/01/27 02:27:32;;;;;;;44.80;23.77;;;5.20;95.20;;;;;;5037674;28;20032;-76
2022/01/27 02:29:58;;;;;;;47.07;24.50;;;5.20;95.20;;;;;;5037703;28;20094;-76
2022/01/27 02:32:24;;;;;;;49.53;26.53;;;5.20;95.20;;;;;;5021147;28;20057;-78
2022/01/27 02:34:50;;;;;;;50.80;26.47;;;5.20;95.20;;;;;;5037584;28;20013;-79
2022/01/27 02:37:16;;;;;;;51.57;27.37;;;5.20;95.20;;;;;;5037516;28;20052;-78
2022/01/27 02:39:44;;;;;;;48.57;25.43;;;5.10;95.20;;;;;;5037572;28;20438;-79
2022/01/27 02:42:36;;;;;;;52.83;26.80;;;5.30;95.30;;;;;;5037405;28;20027;-80
2022/01/27 02:45:07;;;;;;;48.30;26.03;;;5.20;95.30;;;;;;5036870;28;20029;-79
2022/01/27 02:47:34;;;;;;;45.27;24.80;;;5.20;95.30;;;;;;5037285;28;20025;-77
2022/01/27 02:49:59;;;;;;;47.53;24.87;;;5.20;95.30;;;;;;5037184;28;20427;-78
2022/01/27 02:52:26;;;;;;;42.77;24.57;;;5.20;95.40;;;;;;5020840;28;20025;-78
2022/01/27 02:54:52;;;;;;;45.10;26.17;;;5.20;95.40;;;;;;5037301;28;20368;-79
2022/01/27 02:57:19;;;;;;;43.47;24.33;;;5.20;95.40;;;;;;5055159;28;20096;-78
2022/01/27 02:59:46;;;;;;;50.63;25.80;;;5.20;95.40;;;;;;5054859;28;20067;-78
2022/01/27 03:02:12;;;;;;;47.43;25.57;;;5.20;95.40;;;;;;5036931;28;20428;-79
2022/01/27 03:04:37;;;;;;;49.10;25.17;;;5.30;95.40;;;;;;5037105;28;20049;-79
2022/01/27 03:07:05;;;;;;;46.40;24.60;;;5.30;95.40;;;;;;5037178;28;20025;-79
2022/01/27 03:09:33;;;;;;;43.20;24.40;;;5.30;95.40;;;;;;5036942;28;20086;-78
2022/01/27 03:12:08;;;;;;;46.17;23.93;;;5.30;95.40;;;;;;5020595;28;20422;-79
2022/01/27 03:14:35;;;;;;;43.50;24.20;;;5.30;95.40;;;;;;5036698;28;20013;-78
2022/01/27 03:17:02;;;;;;;48.47;24.90;;;5.30;95.40;;;;;;5019855;28;20383;-80
2022/01/27 03:19:28;;;;;;;49.37;25.40;;;5.30;95.40;;;;;;5036622;28;20400;-78
2022/01/27 03:21:55;;;;;;;51.13;24.03;;;5.30;95.40;;;;;;5054757;28;20049;-78
2022/01/27 03:24:23;;;;;;;45.90;25.53;;;5.30;95.40;;;;;;5004004;28;20032;-80
2022/01/27 03:26:51;;;;;;;44.43;25.00;;;5.40;95.70;;;;;;5036468;28;20186;-78
2022/01/27 03:29:18;;;;;;;50.03;26.20;;;5.40;95.40;;;;;;5036631;28;20088;-79
2022/01/27 03:31:45;;;;;;;45.37;24.87;;;5.20;95.40;;;;;;5036543;28;20098;-78
2022/01/27 03:34:12;;;;;;;43.33;22.90;;;5.40;95.50;;;;;;5036472;28;20024;-77
2022/01/27 03:36:37;;;;;;;45.57;25.57;;;5.40;95.50;;;;;;5036393;28;20465;-78
2022/01/27 03:39:04;;;;;;;46.47;24.20;;;5.40;95.50;;;;;;5036508;28;20104;-78
2022/01/27 03:41:33;;;;;;;47.20;25.97;;;5.40;95.40;;;;;;5019913;28;20419;-78
2022/01/27 03:43:59;;;;;;;42.47;23.43;;;5.40;95.70;;;;;;5020402;28;20112;-78
2022/01/27 03:46:25;;;;;;;42.20;24.93;;;5.40;95.40;;;;;;5036181;28;20049;-83
2022/01/27 03:48:50;;;;;;;40.37;24.33;;;5.40;95.40;;;;;;5019790;28;20103;-84
2022/01/27 03:51:16;;;;;;;40.50;23.53;;;5.40;95.50;;;;;;5053913;28;20029;-83
2022/01/27 03:53:42;;;;;;;45.53;24.47;;;5.40;95.50;;;;;;5019622;28;20437;-82
2022/01/27 03:56:08;;;;;;;42.30;25.23;;;5.50;95.50;;;;;;5019529;28;20100;-83
2022/01/27 03:58:33;;;;;;;43.13;25.30;;;5.40;95.50;;;;;;5054060;28;20365;-81
2022/01/27 04:01:03;;;;;;;44.10;25.57;;;5.50;95.50;;;;;;5036002;28;20070;-82
2022/01/27 04:03:32;;;;;;;44.47;24.53;;;5.40;95.40;;;;;;5019489;28;20048;-82
2022/01/27 04:06:05;;;;;;;43.90;25.53;;;5.50;95.50;;;;;;5035904;28;20067;-82
2022/01/27 04:08:30;;;;;;;43.07;23.37;;;5.50;95.50;;;;;;5020428;28;20053;-82
2022/01/27 04:10:56;;;;;;;45.47;23.13;;;5.50;95.50;;;;;;5019338;28;20425;-82
2022/01/27 04:13:21;;;;;;;41.20;24.50;;;5.50;95.50;;;;;;5019419;28;20025;-82
2022/01/27 04:15:47;;;;;;;45.97;25.33;;;5.40;95.50;;;;;;5035617;28;20055;-82
2022/01/27 04:18:13;;;;;;;42.73;23.53;;;5.50;95.50;;;;;;5019264;28;20049;-82
2022/01/27 04:20:40;;;;;;;42.50;24.07;;;5.50;95.50;;;;;;5035421;28;20056;-83
2022/01/27 04:23:07;;;;;;;48.70;26.03;;;5.50;95.50;;;;;;5019183;28;20028;-82
2022/01/27 04:25:33;;;;;;;41.23;22.57;;;5.50;95.40;;;;;;5035586;28;20086;-83
2022/01/27 04:28:04;;;;;;;41.47;22.53;;;5.50;95.50;;;;;;5018682;28;20492;-82
2022/01/27 04:30:30;;;;;;;46.63;24.53;;;5.50;95.50;;;;;;5019617;28;20091;-84
2022/01/27 04:32:59;;;;;;;43.93;23.80;;;5.50;95.50;;;;;;5035403;28;20025;-82
2022/01/27 04:35:27;;;;;;;39.43;21.40;;;5.50;95.50;;;;;;5003571;28;20017;-83
2022/01/27 04:38:14;;;;;;;41.23;22.27;;;5.60;95.60;;;;;;5019446;28;20025;-82
2022/01/27 04:48:22;;;;;;;39.63;23.30;;;5.50;95.60;;;;;;5053337;28;20033;-82
2022/01/27 04:50:50;;;;;;;47.47;21.20;;;5.60;95.70;;;;;;5035727;28;20025;-83
2022/01/27 04:53:26;;;;;;;42.20;23.67;;;5.50;95.60;;;;;;5019078;28;20086;-78
2022/01/27 04:55:54;;;;;;;48.90;23.80;;;5.60;95.70;;;;;;5020249;28;20031;-79
2022/01/27 04:58:28;;;;;;;44.77;23.90;;;5.60;95.70;;;;;;5035137;28;20033;-79
2022/01/27 05:00:56;;;;;;;41.33;21.33;;;5.60;95.70;;;;;;5019782;28;20025;-79
2022/01/27 05:03:33;;;;;;;35.53;19.83;;;5.60;95.70;;;;;;5003245;28;20484;-78
2022/01/27 05:05:59;;;;;;;39.07;20.53;;;5.50;95.70;;;;;;5053028;28;20021;-79
2022/01/27 05:08:24;;;;;;;38.57;20.90;;;5.60;95.80;;;;;;5018589;28;20035;-78
2022/01/27 05:11:12;;;;;;;47.80;24.07;;;5.60;95.80;;;;;;5052876;28;20063;-79
2022/01/27 05:13:46;;;;;;;38.63;20.67;;;5.60;95.90;;;;;;5021535;28;20037;-79
2022/01/27 05:16:14;;;;;;;42.35;22.48;;;5.60;95.90;;;;;;5019542;28;20509;-78
2022/01/27 05:18:39;;;;;;;45.40;21.17;;;5.60;95.90;;;;;;5034916;28;20100;-78
2022/01/27 05:21:05;;;;;;;37.77;20.73;;;5.60;96.00;;;;;;5018285;28;20137;-79
2022/01/27 05:23:31;;;;;;;39.03;20.10;;;5.60;96.00;;;;;;5000033;28;20485;-81
2022/01/27 05:25:56;;;;;;;43.63;21.10;;;5.70;96.10;;;;;;5033618;28;20162;-78
2022/01/27 05:28:22;;;;;;;39.03;20.50;;;5.60;96.10;;;;;;5033257;28;20029;-78
2022/01/27 05:30:48;;;;;;;37.40;20.03;;;5.70;96.20;;;;;;5050710;28;20507;-78
2022/01/27 05:33:14;;;;;;;36.90;19.70;;;5.60;96.20;;;;;;5018018;28;20025;-79
2022/01/27 05:35:39;;;;;;;38.53;20.73;;;5.70;96.20;;;;;;5034837;28;20028;-79
2022/01/27 05:38:05;;;;;;;44.50;21.90;;;5.70;96.20;;;;;;5017591;28;20017;-78
2022/01/27 05:40:31;;;;;;;39.17;19.60;;;5.70;96.30;;;;;;5036609;28;20052;-79
2022/01/27 05:42:56;;;;;;;34.83;17.90;;;5.70;96.30;;;;;;5038615;28;20025;-79
2022/01/27 05:45:22;;;;;;;36.53;19.97;;;5.70;96.30;;;;;;5038384;28;20064;-78
2022/01/27 05:47:48;;;;;;;39.40;18.87;;;5.70;96.40;;;;;;5021976;28;20045;-77
2022/01/27 05:50:13;;;;;;;39.00;19.63;;;5.70;96.40;;;;;;5038472;28;20028;-79
2022/01/27 05:52:39;;;;;;;42.07;20.67;;;5.70;96.60;;;;;;5038180;28;20017;-79
2022/01/27 05:55:06;;;;;;;43.67;21.40;;;5.80;96.80;;;;;;5038405;28;20108;-78
2022/01/27 05:57:31;;;;;;;34.07;18.90;;;5.80;97.10;;;;;;5034659;28;20017;-79
2022/01/27 05:59:57;;;;;;;41.50;18.37;;;5.80;97.00;;;;;;5049502;28;20075;-78
2022/01/27 06:02:23;;;;;;;37.00;17.97;;;5.70;97.50;;;;;;5033669;28;20094;-78
2022/01/27 06:04:49;;;;;;;35.47;17.90;;;5.70;97.50;;;;;;5043248;28;20025;-78
2022/01/27 06:07:15;;;;;;;40.00;18.83;;;5.70;97.80;;;;;;5050229;28;20458;-78
2022/01/27 06:09:40;;;;;;;35.17;17.77;;;5.80;97.80;;;;;;5038592;28;20021;-78
2022/01/27 06:12:07;;;;;;;37.07;18.20;;;5.80;97.90;;;;;;5014634;28;20033;-79
2022/01/27 06:14:32;;;;;;;43.03;19.10;;;5.80;98.00;;;;;;5016235;28;20025;-79
2022/01/27 06:16:58;;;;;;;38.87;19.63;;;5.80;98.20;;;;;;5035273;28;20032;-79
2022/01/27 06:19:27;;;;;;;36.00;16.77;;;5.80;98.30;;;;;;5036845;28;20024;-79
2022/01/27 06:21:52;;;;;;;45.83;17.87;;;5.80;98.20;;;;;;5018592;28;20459;-79
2022/01/27 06:24:18;;;;;;;33.53;16.80;;;5.80;98.30;;;;;;5051539;28;20116;-78
2022/01/27 06:26:44;;;;;;;33.90;17.57;;;5.90;98.50;;;;;;5052311;28;20028;-78
2022/01/27 06:29:09;;;;;;;31.00;15.97;;;5.90;98.80;;;;;;5052633;28;20075;-78
2022/01/27 06:31:35;;;;;;;30.53;15.17;;;5.90;98.90;;;;;;5027587;28;20477;-79
2022/01/27 06:34:01;;;;;;;35.23;15.90;;;6.00;98.80;;;;;;5020671;28;20029;-79
2022/01/27 06:36:26;;;;;;;40.87;17.73;;;6.00;98.80;;;;;;5019287;28;20021;-78
2022/01/27 06:38:52;;;;;;;33.37;15.93;;;6.00;99.00;;;;;;5036840;28;20443;-78
2022/01/27 06:41:18;;;;;;;36.83;16.43;;;6.10;99.20;;;;;;5036648;28;20036;-79
2022/01/27 06:43:44;;;;;;;31.10;16.13;;;6.10;99.50;;;;;;5037137;28;20063;-78
2022/01/27 06:46:09;;;;;;;38.63;16.07;;;6.20;99.20;;;;;;5036648;28;20041;-78
2022/01/27 06:48:35;;;;;;;38.50;17.17;;;6.20;99.20;;;;;;5020199;28;20032;-79
2022/01/27 06:51:04;;;;;;;34.27;16.83;;;6.20;99.30;;;;;;5019500;28;20035;-79
2022/01/27 06:53:29;;;;;;;34.93;15.50;;;6.30;99.30;;;;;;5020502;28;20027;-77
2022/01/27 06:55:58;;;;;;;33.13;15.87;;;6.30;99.30;;;;;;5003142;28;20108;-79
2022/01/27 06:58:24;;;;;;;41.07;18.73;;;6.30;99.40;;;;;;5036859;28;20044;-80
2022/01/27 07:00:50;;;;;;;33.87;16.90;;;6.30;99.40;;;;;;5003557;28;20052;-78
2022/01/27 07:03:16;;;;;;;39.53;18.43;;;6.40;99.50;;;;;;5020313;28;20052;-78
2022/01/27 07:05:42;;;;;;;33.30;16.03;;;6.40;99.50;;;;;;5020186;28;20032;-78
2022/01/27 07:08:08;;;;;;;36.47;17.43;;;6.40;99.40;;;;;;5036908;28;20025;-78
2022/01/27 07:10:34;;;;;;;30.10;14.03;;;6.40;99.40;;;;;;5036964;28;20124;-78
2022/01/27 07:12:59;;;;;;;32.03;15.73;;;6.40;99.40;;;;;;5036857;28;20032;-78
2022/01/27 07:15:25;;;;;;;40.13;16.93;;;6.40;99.30;;;;;;5019543;28;20017;-78
2022/01/27 07:17:51;;;;;;;35.10;15.57;;;6.50;99.30;;;;;;5036380;28;20029;-77
2022/01/27 07:20:17;;;;;;;35.00;17.27;;;6.40;99.20;;;;;;5019975;28;20041;-79
2022/01/27 07:22:43;;;;;;;36.37;16.43;;;6.50;99.40;;;;;;5019725;28;20029;-78
2022/01/27 07:25:09;;;;;;;33.13;17.20;;;6.50;99.50;;;;;;5036202;28;20017;-78
2022/01/27 07:27:35;;;;;;;37.53;16.20;;;6.50;99.70;;;;;;5036112;28;20024;-78
2022/01/27 07:30:01;;;;;;;39.33;17.80;;;6.50;99.90;;;;;;5036656;28;20100;-77
2022/01/27 07:32:26;;;;;;;40.97;17.97;;;6.50;99.90;;;;;;5020229;28;20536;-79
2022/01/27 07:34:52;;;;;;;37.47;18.90;;;6.50;99.90;;;;;;5036393;28;20106;-78
2022/01/27 07:37:18;;;;;;;32.57;16.37;;;6.50;99.90;;;;;;5019624;28;20120;-77
2022/01/27 07:39:44;;;;;;;50.77;18.73;;;6.40;99.90;;;;;;5003548;28;20057;-77
2022/01/27 07:42:09;;;;;;;40.20;18.87;;;6.40;99.90;;;;;;5036153;28;20025;-77
2022/01/27 07:44:35;;;;;;;39.57;17.53;;;6.40;99.90;;;;;;5035362;28;20036;-77
2022/01/27 07:47:02;;;;;;;41.43;17.93;;;6.40;99.90;;;;;;5016706;28;20499;-78
2022/01/27 07:49:28;;;;;;;38.23;18.90;;;6.40;99.90;;;;;;5053852;28;20087;-76
2022/01/27 07:51:54;;;;;;;41.73;19.23;;;6.40;99.90;;;;;;5019378;28;20029;-78
2022/01/27 07:54:20;;;;;;;42.87;19.33;;;6.40;99.90;;;;;;5003000;28;20022;-78
2022/01/27 07:56:46;;;;;;;41.27;17.60;;;6.40;99.90;;;;;;5035776;28;20066;-79
2022/01/27 07:59:11;;;;;;;43.90;20.63;;;6.30;99.90;;;;;;5018752;28;20029;-79
2022/01/27 08:01:37;;;;;;;37.33;17.90;;;6.30;99.90;;;;;;5035089;28;20608;-79
2022/01/27 08:04:03;;;;;;;39.67;18.90;;;6.30;99.90;;;;;;5035476;28;20111;-78
2022/01/27 08:06:29;;;;;;;41.40;19.17;;;6.30;99.90;;;;;;5053566;28;20049;-77
2022/01/27 08:08:54;;;;;;;39.67;19.63;;;6.30;99.90;;;;;;5019447;28;20029;-78
2022/01/27 08:11:20;;;;;;;42.53;19.13;;;6.30;99.90;;;;;;5035506;28;20025;-78
2022/01/27 08:13:46;;;;;;;41.43;18.93;;;6.20;99.90;;;;;;5019284;28;20032;-78
2022/01/27 08:16:11;;;;;;;40.80;20.47;;;6.30;99.90;;;;;;5035548;28;20049;-78
2022/01/27 08:18:37;;;;;;;42.00;19.80;;;6.30;99.90;;;;;;5019083;28;20465;-77
2022/01/27 08:21:03;;;;;;;40.63;19.40;;;6.30;99.90;;;;;;5002564;28;20079;-77
2022/01/27 08:23:29;;;;;;;38.53;19.77;;;6.30;99.90;;;;;;5053131;28;20028;-78
2022/01/27 08:26:07;;;;;;;44.57;19.07;;;6.20;99.90;;;;;;5035625;28;20052;-77
2022/01/27 08:28:49;;;;;;;42.67;19.97;;;6.20;99.90;;;;;;5035479;28;20505;-77
2022/01/27 08:31:15;;;;;;;37.53;18.63;;;6.30;99.90;;;;;;5020969;28;20021;-76
2022/01/27 08:33:42;;;;;;;37.57;19.40;;;6.20;99.90;;;;;;5019491;28;20041;-76
2022/01/27 08:36:08;;;;;;;41.17;19.37;;;6.30;99.90;;;;;;5035227;28;20059;-77
2022/01/27 08:38:36;;;;;;;40.43;19.50;;;6.40;99.90;;;;;;5035269;28;20025;-77
2022/01/27 08:41:03;;;;;;;37.73;18.97;;;6.30;99.90;;;;;;5053391;28;20416;-77
2022/01/27 08:43:29;;;;;;;42.07;21.30;;;6.30;99.90;;;;;;5034912;28;20032;-83
2022/01/27 08:45:54;;;;;;;38.33;19.17;;;6.30;99.90;;;;;;5052676;28;20033;-80
2022/01/27 08:48:21;;;;;;;40.90;19.93;;;6.40;99.90;;;;;;5035058;28;20070;-81
2022/01/27 08:51:01;;;;;;;41.50;19.43;;;6.30;99.90;;;;;;5035338;28;20459;-84
2022/01/27 08:53:28;;;;;;;40.90;20.57;;;6.40;99.90;;;;;;5052629;28;20028;-81
2022/01/27 08:55:54;;;;;;;44.00;20.50;;;6.40;99.90;;;;;;5018681;28;20021;-84
2022/01/27 08:58:21;;;;;;;46.47;20.20;;;6.40;99.90;;;;;;5018796;28;20091;-81
2022/01/27 09:00:46;;;;;;;40.80;20.00;;;6.40;99.90;;;;;;5035403;28;20461;-81
2022/01/27 09:03:12;;;;;;;44.17;20.73;;;6.40;99.90;;;;;;5018804;28;20044;-83
2022/01/27 09:05:38;;;;;;;38.47;20.70;;;6.50;99.90;;;;;;5035640;28;20554;-84
2022/01/27 09:08:04;;;;;;;37.03;18.50;;;6.40;99.90;;;;;;5019093;28;20397;-84
2022/01/27 09:10:31;;;;;;;36.43;19.83;;;6.40;99.90;;;;;;5052822;28;20503;-83
2022/01/27 09:12:59;;;;;;;40.77;20.33;;;6.40;99.90;;;;;;5018773;28;20033;-83
2022/01/27 09:15:24;;;;;;;39.13;20.40;;;6.50;99.90;;;;;;5037070;28;20492;-84
2022/01/27 09:17:50;;;;;;;36.57;19.03;;;6.40;99.90;;;;;;5039060;28;20029;-84
2022/01/27 09:20:16;;;;;;;40.03;19.50;;;6.50;99.90;;;;;;5019008;28;20081;-83
2022/01/27 09:22:42;;;;;;;44.37;19.40;;;6.50;99.90;;;;;;5019439;28;20026;-82
2022/01/27 09:25:17;;;;;;;36.27;18.73;;;6.50;99.90;;;;;;5019418;28;20381;-83
2022/01/27 09:27:43;;;;;;;36.73;19.83;;;6.50;99.90;;;;;;5020410;28;20031;-81
2022/01/27 09:30:11;;;;;;;33.93;18.87;;;6.50;99.90;;;;;;5019498;28;20033;-82
2022/01/27 09:32:37;;;;;;;35.33;18.53;;;6.50;99.90;;;;;;5036788;28;20033;-82
2022/01/27 09:35:03;;;;;;;35.50;17.33;;;6.60;99.90;;;;;;5019212;28;20025;-82
2022/01/27 09:37:29;;;;;;;39.97;18.93;;;6.60;99.90;;;;;;5018911;28;20040;-82
2022/01/27 09:39:54;;;;;;;35.73;18.37;;;6.60;99.90;;;;;;5002886;28;20112;-81
2022/01/27 09:42:21;;;;;;;32.73;16.00;;;6.60;99.90;;;;;;5002652;28;20032;-82
2022/01/27 09:44:52;;;;;;;35.67;17.40;;;6.70;99.90;;;;;;5002950;28;20033;-83
2022/01/27 09:47:19;;;;;;;34.83;17.10;;;6.60;99.90;;;;;;5020079;28;20050;-81
2022/01/27 09:50:04;;;;;;;36.43;18.60;;;6.70;99.90;;;;;;5018980;28;20497;-82
2022/01/27 09:52:29;;;;;;;34.37;17.77;;;6.60;99.90;;;;;;5021338;28;20032;-81
2022/01/27 09:54:55;;;;;;;33.00;17.60;;;6.70;99.90;;;;;;5018724;28;20018;-82
2022/01/27 09:57:20;;;;;;;28.93;15.57;;;6.80;99.90;;;;;;5018804;28;20018;-81
2022/01/27 09:59:46;;;;;;;29.57;14.87;;;6.80;99.90;;;;;;5018264;28;20030;-81
2022/01/27 10:02:22;;;;;;;31.80;17.30;;;6.70;99.90;;;;;;5035084;28;20106;-80
2022/01/27 10:04:52;;;;;;;29.43;16.00;;;6.70;99.90;;;;;;5034889;28;20026;-81
2022/01/27 10:07:20;;;;;;;27.70;14.67;;;6.80;99.90;;;;;;5034319;28;20505;-77
2022/01/27 10:10:05;;;;;;;30.20;16.63;;;6.70;99.90;;;;;;5018517;28;20030;-77
2022/01/27 10:12:36;;;;;;;33.07;16.87;;;6.70;99.90;;;;;;5034443;28;20026;-76
2022/01/27 10:15:10;;;;;;;28.03;17.57;;;6.80;99.90;;;;;;5035786;28;20021;-76
2022/01/27 10:17:38;;;;;;;32.92;15.75;;;6.80;99.90;;;;;;5034667;28;20126;-76
2022/01/27 10:20:18;;;;;;;29.10;17.30;;;6.80;99.90;;;;;;5021264;28;20496;-77
2022/01/27 10:23:23;;;;;;;28.33;15.63;;;6.90;99.90;;;;;;5020731;28;20052;-76
2022/01/27 10:25:55;;;;;;;;;;;6.90;99.90;;;;;;5037595;28;20104;-77
2022/01/27 10:28:57;;;;;;;28.23;14.07;;;7.00;99.90;;;;;;5054590;28;20003;-76
2022/01/27 10:31:25;;;;;;;22.63;13.60;;;7.00;99.90;;;;;;5054766;28;20060;-76
2022/01/27 10:34:03;;;;;;;25.17;13.40;;;7.00;99.90;;;;;;5037655;28;20029;-76
2022/01/27 10:36:31;;;;;;;25.73;13.53;;;7.10;99.90;;;;;;5055512;28;20090;-77
2022/01/27 10:39:02;;;;;;;19.00;11.70;;;7.10;99.90;;;;;;5021470;28;20499;-76
2022/01/27 10:41:30;;;;;;;21.80;12.47;;;7.10;99.90;;;;;;5054252;28;20041;-77
2022/01/27 10:44:09;;;;;;;25.37;12.10;;;7.10;99.90;;;;;;5037675;28;20116;-76
2022/01/27 10:46:38;;;;;;;23.77;12.60;;;7.20;99.90;;;;;;5055248;28;20053;-77
2022/01/27 10:49:10;;;;;;;25.43;13.07;;;7.30;99.90;;;;;;5021362;28;20080;-76
2022/01/27 10:51:49;;;;;;;22.00;12.67;;;7.20;99.90;;;;;;5037128;28;20021;-77
2022/01/27 10:54:21;;;;;;;25.73;12.90;;;7.20;99.90;;;;;;5037283;28;20017;-77
2022/01/27 10:56:48;;;;;;;20.13;11.87;;;7.20;99.90;;;;;;5055044;28;20070;-76
2022/01/27 10:59:17;;;;;;;25.90;13.97;;;7.30;99.90;;;;;;5055079;28;20484;-75
2022/01/27 11:01:51;;;;;;;27.77;14.60;;;7.30;99.90;;;;;;5037046;28;20028;-77
2022/01/27 11:04:19;;;;;;;28.63;13.98;;;7.30;99.90;;;;;;5036321;28;20078;-77
2022/01/27 11:06:56;;;;;;;24.43;14.23;;;7.30;99.90;;;;;;5034502;28;20124;-76
2022/01/27 11:09:22;;;;;;;30.87;14.53;;;7.40;99.90;;;;;;5054154;28;20500;-76
2022/01/27 11:11:52;;;;;;;30.40;14.63;;;7.40;99.90;;;;;;5019523;28;20060;-76
2022/01/27 11:14:20;;;;;;;27.50;14.13;;;7.40;99.90;;;;;;5053694;28;20056;-76
2022/01/27 11:16:49;;;;;;;29.97;15.00;;;7.40;99.90;;;;;;5053986;28;20504;-76
2022/01/27 11:19:52;;;;;;;27.90;15.97;;;7.50;99.90;;;;;;5004148;28;20017;-77
2022/01/27 11:25:07;;;;;;;26.77;16.03;;;7.50;99.90;;;;;;5032765;28;20044;-76
2022/01/27 11:27:36;;;;;;;31.80;17.40;;;7.60;99.90;;;;;;5020232;28;20630;-76
2022/01/27 11:30:22;;;;;;;33.20;15.73;;;7.60;99.90;;;;;;5033816;28;20026;-76
2022/01/27 11:33:03;;;;;;;38.30;17.03;;;7.70;99.90;;;;;;5032545;28;20026;-76
2022/01/27 11:35:29;;;;;;;35.10;18.03;;;7.70;99.90;;;;;;5029925;28;20022;-76
2022/01/27 11:37:57;;;;;;;33.17;17.70;;;7.70;99.90;;;;;;5032327;28;20116;-76
2022/01/27 11:40:34;;;;;;;32.17;17.03;;;7.70;99.90;;;;;;5016282;28;20056;-77
2022/01/27 11:43:00;;;;;;;41.20;17.03;;;7.70;99.90;;;;;;5031318;28;20029;-77
2022/01/27 11:45:33;;;;;;;34.13;17.03;;;7.80;99.90;;;;;;5032455;28;20021;-77
2022/01/27 11:48:02;;;;;;;;;;;7.80;99.90;;;;;;5032824;28;20070;-77
2022/01/27 11:50:35;;;;;;;30.90;16.87;;;7.80;99.90;;;;;;5032233;28;19905;-75
2022/01/27 11:53:07;;;;;;;31.52;17.85;;;7.80;99.90;;;;;;5032893;28;20022;-76
2022/01/27 11:55:32;;;;;;;37.13;18.83;;;7.90;99.90;;;;;;5032252;28;20018;-76
2022/01/27 11:57:59;;;;;;;36.70;16.70;;;7.90;99.90;;;;;;5032163;28;20018;-76
2022/01/27 12:00:28;;;;;;;37.20;17.63;;;7.90;99.90;;;;;;5032149;28;20358;-76
2022/01/27 12:02:57;;;;;;;40.33;17.60;;;7.90;99.90;;;;;;5033385;28;20378;-76
2022/01/27 12:05:27;;;;;;;31.10;17.87;;;8.00;99.90;;;;;;5029417;28;20168;-77
2022/01/27 12:08:12;;;;;;;34.90;17.53;;;8.00;99.90;;;;;;5031797;28;20049;-77
2022/01/27 12:10:42;;;;;;;30.75;16.10;;;8.00;99.90;;;;;;5031490;28;20045;-77
2022/01/27 12:16:57;;;;;;;31.73;15.70;;;8.00;99.90;;;;;;5031844;28;20109;-76
2022/01/27 12:19:06;;;;;;;26.13;15.83;;;8.00;99.90;;;;;;5024094;28;20108;-77
2022/01/27 12:21:40;;;;;;;36.10;16.50;;;8.00;99.90;;;;;;5038056;28;20579;-77
2022/01/27 12:24:12;;;;;;;36.50;16.23;;;8.10;99.90;;;;;;5052741;28;20033;-77
2022/01/27 12:26:49;;;;;;;30.37;16.60;;;8.10;99.90;;;;;;5052948;28;20033;-77
2022/01/27 12:29:26;;;;;;;28.20;16.00;;;8.10;99.90;;;;;;5050736;28;20029;-77
2022/01/27 12:31:55;;;;;;;30.67;17.87;;;8.00;99.90;;;;;;5052722;28;20025;-77
2022/01/27 12:34:22;;;;;;;32.70;17.43;;;8.00;99.90;;;;;;5034951;28;20021;-77
2022/01/27 12:36:56;;;;;;;33.20;17.90;;;8.10;99.90;;;;;;5035099;28;20060;-77
2022/01/27 12:39:24;;;;;;;31.90;16.93;;;8.10;99.90;;;;;;5052754;28;20527;-76
2022/01/27 12:41:50;;;;;;;32.33;17.57;;;8.10;99.90;;;;;;5034862;28;20024;-76
2022/01/27 12:44:16;;;;;;;31.33;17.77;;;8.10;99.90;;;;;;5035087;28;20029;-77
2022/01/27 12:47:00;;;;;;;28.90;17.47;;;8.10;99.90;;;;;;5018546;28;20091;-77
2022/01/27 12:49:36;;;;;;;31.38;16.35;;;8.10;99.90;;;;;;5050098;28;20125;-77
2022/01/27 12:52:06;;;;;;;33.80;18.83;;;8.10;99.90;;;;;;5034685;28;20021;-76
2022/01/27 12:54:33;;;;;;;32.07;17.73;;;8.10;99.90;;;;;;5034730;28;20021;-76
2022/01/27 12:56:59;;;;;;;35.77;18.97;;;8.20;99.90;;;;;;5034522;28;20027;-76
2022/01/27 12:59:33;;;;;;;32.77;16.97;;;8.20;99.90;;;;;;5034241;28;20025;-77
2022/01/27 13:02:03;;;;;;;32.93;17.20;;;8.20;99.90;;;;;;5051075;28;20033;-77
2022/01/27 13:04:29;;;;;;;36.37;17.43;;;8.20;99.90;;;;;;5052795;28;20060;-77
2022/01/27 13:06:57;;;;;;;33.37;18.07;;;8.30;99.90;;;;;;5035175;28;20178;-76
2022/01/27 13:09:25;;;;;;;31.93;17.43;;;8.30;99.90;;;;;;5052099;28;20107;-77
2022/01/27 13:11:53;;;;;;;30.23;16.50;;;8.30;99.90;;;;;;5035361;28;20036;-77
2022/01/27 13:14:19;;;;;;;30.80;16.97;;;8.20;99.90;;;;;;5018608;28;20029;-77
2022/01/27 13:16:51;;;;;;;33.23;16.03;;;8.40;99.90;;;;;;5018376;28;20029;-76
2022/01/27 13:19:28;;;;;;;32.27;15.60;;;8.40;99.90;;;;;;5034476;28;20017;-77
2022/01/27 13:22:05;;;;;;;28.40;15.47;;;8.50;99.90;;;;;;5032322;28;20124;-77
2022/01/27 13:24:34;;;;;;;32.23;14.27;;;8.60;99.90;;;;;;5034841;28;20036;-77
2022/01/27 13:27:07;;;;;;;25.13;12.33;;;8.50;99.90;;;;;;5052144;28;20029;-77
2022/01/27 13:29:45;;;;;;;27.80;11.95;;;8.60;99.90;;;;;;5035092;28;20025;-77
2022/01/27 13:32:12;;;;;;;21.37;11.13;;;8.70;99.90;;;;;;5034732;28;20027;-77
2022/01/27 13:34:46;;;;;;;20.20;10.53;;;8.80;99.90;;;;;;5002255;28;20029;-77
2022/01/27 13:37:12;;;;;;;17.05;9.20;;;8.80;99.90;;;;;;5034657;28;20025;-77
2022/01/27 13:42:22;;;;;;;20.67;9.03;;;8.90;99.90;;;;;;5052630;28;20025;-77
2022/01/27 13:44:55;;;;;;;25.53;9.73;;;9.00;99.90;;;;;;5034682;28;20033;-78